sensor_id;sensor_type;location;lat;lon;timestamp;pressure;altitude;pressure_sealevel;temperature;humidity
44079;BME280;29744;49.078;12.878;2022-07-25T00:03:52;96516.38;;;21.30;41.47
44079;BME280;29744;49.078;12.878;2022-07-25T00:08:52;96514.44;;;21.30;41.22
44079;BME280;29744;49.078;12.878;2022-07-25T00:13:53;96507.41;;;21.29;41.29
44079;BME280;29744;49.078;12.878;2022-07-25T00:18:53;96500.38;;;21.28;41.50
44079;BME280;29744;49.078;12.878;2022-07-25T00:23:53;96500.38;;;21.28;41.49
44079;BME280;29744;49.078;12.878;2022-07-25T00:28:54;96499.56;;;21.28;41.68
44079;BME280;29744;49.078;12.878;2022-07-25T00:33:54;96487.88;;;21.27;41.62
44079;BME280;29744;49.078;12.878;2022-07-25T00:38:54;96496.84;;;21.28;41.59
44079;BME280;29744;49.078;12.878;2022-07-25T00:43:55;96486.72;;;21.28;41.42
44079;BME280;29744;49.078;12.878;2022-07-25T00:48:55;96487.09;;;21.27;41.34
44079;BME280;29744;49.078;12.878;2022-07-25T00:53:56;96484.38;;;21.27;41.30
44079;BME280;29744;49.078;12.878;2022-07-25T00:58:56;96482.78;;;21.26;41.43
44079;BME280;29744;49.078;12.878;2022-07-25T01:03:57;96476.19;;;21.27;41.46
44079;BME280;29744;49.078;12.878;2022-07-25T01:08:57;96477.34;;;21.26;41.37
44079;BME280;29744;49.078;12.878;2022-07-25T01:13:58;96478.50;;;21.25;41.32
44079;BME280;29744;49.078;12.878;2022-07-25T01:18:58;96476.56;;;21.25;41.45
44079;BME280;29744;49.078;12.878;2022-07-25T01:23:59;96476.56;;;21.25;41.41
44079;BME280;29744;49.078;12.878;2022-07-25T01:28:59;96473.03;;;21.25;41.12
44079;BME280;29744;49.078;12.878;2022-07-25T01:33:59;96466.44;;;21.26;41.35
44079;BME280;29744;49.078;12.878;2022-07-25T01:38:59;96452.00;;;21.25;41.41
44079;BME280;29744;49.078;12.878;2022-07-25T01:44:00;96448.50;;;21.25;41.30
44079;BME280;29744;49.078;12.878;2022-07-25T01:49:00;96446.13;;;21.23;40.95
44079;BME280;29744;49.078;12.878;2022-07-25T01:54:00;96446.13;;;21.23;40.91
44079;BME280;29744;49.078;12.878;2022-07-25T01:59:01;96438.72;;;21.24;41.36
44079;BME280;29744;49.078;12.878;2022-07-25T02:04:01;96432.50;;;21.23;41.32
44079;BME280;29744;49.078;12.878;2022-07-25T02:09:02;96420.78;;;21.23;41.24
44079;BME280;29744;49.078;12.878;2022-07-25T02:14:03;96422.38;;;21.24;40.88
44079;BME280;29744;49.078;12.878;2022-07-25T02:19:03;96420.78;;;21.23;41.18
44079;BME280;29744;49.078;12.878;2022-07-25T02:24:04;96423.53;;;21.23;41.04
44079;BME280;29744;49.078;12.878;2022-07-25T02:29:04;96409.88;;;21.23;41.00
44079;BME280;29744;49.078;12.878;2022-07-25T02:34:04;96406.34;;;21.22;41.20
44079;BME280;29744;49.078;12.878;2022-07-25T02:39:05;96396.59;;;21.21;41.11
44079;BME280;29744;49.078;12.878;2022-07-25T02:44:05;96400.09;;;21.22;41.13
44079;BME280;29744;49.078;12.878;2022-07-25T02:49:05;96395.81;;;21.21;41.16
44079;BME280;29744;49.078;12.878;2022-07-25T02:54:06;96402.03;;;21.21;41.14
44079;BME280;29744;49.078;12.878;2022-07-25T02:59:06;96393.06;;;21.21;41.27
44079;BME280;29744;49.078;12.878;2022-07-25T03:04:06;96388.41;;;21.21;41.15
44079;BME280;29744;49.078;12.878;2022-07-25T03:09:06;96393.06;;;21.21;40.78
44079;BME280;29744;49.078;12.878;2022-07-25T03:14:07;96389.56;;;21.20;40.58
44079;BME280;29744;49.078;12.878;2022-07-25T03:19:08;96392.28;;;21.20;41.13
44079;BME280;29744;49.078;12.878;2022-07-25T03:24:09;96389.56;;;21.20;41.22
44079;BME280;29744;49.078;12.878;2022-07-25T03:29:10;96386.06;;;21.19;40.66
44079;BME280;29744;49.078;12.878;2022-07-25T03:34:10;96383.31;;;21.19;40.75
44079;BME280;29744;49.078;12.878;2022-07-25T03:39:11;96378.66;;;21.20;41.21
44079;BME280;29744;49.078;12.878;2022-07-25T03:44:12;96376.28;;;21.18;41.13
44079;BME280;29744;49.078;12.878;2022-07-25T03:49:12;96372.41;;;21.19;41.33
44079;BME280;29744;49.078;12.878;2022-07-25T03:54:12;96368.91;;;21.19;40.94
44079;BME280;29744;49.078;12.878;2022-07-25T03:59:15;96377.88;;;21.19;41.12
44079;BME280;29744;49.078;12.878;2022-07-25T04:04:17;96370.47;;;21.20;40.87
44079;BME280;29744;49.078;12.878;2022-07-25T04:09:18;96368.91;;;21.19;41.03
44079;BME280;29744;49.078;12.878;2022-07-25T04:14:18;96370.84;;;21.18;41.09
44079;BME280;29744;49.078;12.878;2022-07-25T04:19:19;96365.38;;;21.18;41.14
44079;BME280;29744;49.078;12.878;2022-07-25T04:24:19;96353.69;;;21.18;40.89
44079;BME280;29744;49.078;12.878;2022-07-25T04:29:19;96354.47;;;21.18;40.83
44079;BME280;29744;49.078;12.878;2022-07-25T04:34:19;96349.03;;;21.18;41.03
44079;BME280;29744;49.078;12.878;2022-07-25T04:39:20;96354.47;;;21.18;40.96
44079;BME280;29744;49.078;12.878;2022-07-25T04:44:20;96354.47;;;21.18;40.95
44079;BME280;29744;49.078;12.878;2022-07-25T04:49:20;96353.69;;;21.18;41.01
44079;BME280;29744;49.078;12.878;2022-07-25T04:54:21;96362.66;;;21.18;41.04
44079;BME280;29744;49.078;12.878;2022-07-25T04:59:21;96357.22;;;21.18;40.89
44079;BME280;29744;49.078;12.878;2022-07-25T05:04:21;96360.72;;;21.19;40.94
44079;BME280;29744;49.078;12.878;2022-07-25T05:09:22;96358.41;;;21.21;40.72
44079;BME280;29744;49.078;12.878;2022-07-25T05:14:22;96355.69;;;21.21;40.97
44079;BME280;29744;49.078;12.878;2022-07-25T05:19:23;96345.22;;;21.23;40.93
44079;BME280;29744;49.078;12.878;2022-07-25T05:24:23;96343.63;;;21.22;40.79
44079;BME280;29744;49.078;12.878;2022-07-25T05:29:23;96338.16;;;21.22;40.71
44079;BME280;29744;49.078;12.878;2022-07-25T05:34:24;96339.78;;;21.23;40.06
44079;BME280;29744;49.078;12.878;2022-07-25T05:39:24;96330.81;;;21.23;39.88
44079;BME280;29744;49.078;12.878;2022-07-25T05:44:24;96331.94;;;21.22;39.21
44079;BME280;29744;49.078;12.878;2022-07-25T05:49:25;96321.00;;;21.22;39.94
44079;BME280;29744;49.078;12.878;2022-07-25T05:54:25;96326.47;;;21.22;40.18
44079;BME280;29744;49.078;12.878;2022-07-25T05:59:26;96319.88;;;21.23;40.08
44079;BME280;29744;49.078;12.878;2022-07-25T06:04:26;96317.94;;;21.23;40.30
44079;BME280;29744;49.078;12.878;2022-07-25T06:09:27;96310.56;;;21.24;40.36
44079;BME280;29744;49.078;12.878;2022-07-25T06:14:28;96304.72;;;21.25;40.33
44079;BME280;29744;49.078;12.878;2022-07-25T06:19:28;96302.78;;;21.26;40.23
44079;BME280;29744;49.078;12.878;2022-07-25T06:24:28;96302.00;;;21.25;40.55
44079;BME280;29744;49.078;12.878;2022-07-25T06:29:28;96304.72;;;21.25;40.79
44079;BME280;29744;49.078;12.878;2022-07-25T06:34:29;96291.09;;;21.25;40.13
44079;BME280;29744;49.078;12.878;2022-07-25T06:39:29;96289.94;;;21.26;40.61
44079;BME280;29744;49.078;12.878;2022-07-25T06:44:33;96291.50;;;21.27;40.53
44079;BME280;29744;49.078;12.878;2022-07-25T06:49:34;96275.13;;;21.27;40.24
44079;BME280;29744;49.078;12.878;2022-07-25T06:54:34;96266.97;;;21.27;40.74
44079;BME280;29744;49.078;12.878;2022-07-25T06:59:35;96264.22;;;21.27;40.66
44079;BME280;29744;49.078;12.878;2022-07-25T07:04:35;96259.56;;;21.28;40.37
44079;BME280;29744;49.078;12.878;2022-07-25T07:09:35;96254.09;;;21.28;40.68
44079;BME280;29744;49.078;12.878;2022-07-25T07:14:35;96259.56;;;21.28;40.60
44079;BME280;29744;49.078;12.878;2022-07-25T07:19:38;96257.63;;;21.28;40.74
44079;BME280;29744;49.078;12.878;2022-07-25T07:24:44;96252.94;;;21.29;40.29
44079;BME280;29744;49.078;12.878;2022-07-25T07:29:45;96247.50;;;21.29;41.12
44079;BME280;29744;49.078;12.878;2022-07-25T07:34:45;96240.09;;;21.29;40.39
44079;BME280;29744;49.078;12.878;2022-07-25T07:39:45;96229.97;;;21.30;41.08
44079;BME280;29744;49.078;12.878;2022-07-25T07:44:45;96227.25;;;21.30;40.73
44079;BME280;29744;49.078;12.878;2022-07-25T07:49:46;96212.44;;;21.31;40.69
44079;BME280;29744;49.078;12.878;2022-07-25T07:54:46;96206.22;;;21.30;41.15
44079;BME280;29744;49.078;12.878;2022-07-25T08:00:06;96201.13;;;21.29;40.66
44079;BME280;29744;49.078;12.878;2022-07-25T08:05:06;96193.72;;;21.29;40.42
44079;BME280;29744;49.078;12.878;2022-07-25T08:10:07;96195.31;;;21.30;40.83
44079;BME280;29744;49.078;12.878;2022-07-25T08:15:08;96191.78;;;21.30;40.78
44079;BME280;29744;49.078;12.878;2022-07-25T08:20:09;96190.63;;;21.31;40.84
44079;BME280;29744;49.078;12.878;2022-07-25T08:25:13;96188.69;;;21.31;40.70
44079;BME280;29744;49.078;12.878;2022-07-25T08:30:15;96186.75;;;21.32;40.82
44079;BME280;29744;49.078;12.878;2022-07-25T08:35:17;96186.75;;;21.32;40.95
44079;BME280;29744;49.078;12.878;2022-07-25T08:40:23;96188.69;;;21.31;40.98
44079;BME280;29744;49.078;12.878;2022-07-25T08:45:25;96196.88;;;21.31;41.17
44079;BME280;29744;49.078;12.878;2022-07-25T08:50:28;96189.47;;;21.32;40.81
44079;BME280;29744;49.078;12.878;2022-07-25T08:55:28;96184.03;;;21.32;40.76
44079;BME280;29744;49.078;12.878;2022-07-25T09:00:29;96178.56;;;21.32;40.73
44079;BME280;29744;49.078;12.878;2022-07-25T09:05:30;96170.38;;;21.32;40.37
44079;BME280;29744;49.078;12.878;2022-07-25T09:10:31;96174.69;;;21.33;40.62
44079;BME280;29744;49.078;12.878;2022-07-25T09:15:34;96170.00;;;21.33;40.54
44079;BME280;29744;49.078;12.878;2022-07-25T09:20:38;96172.72;;;21.33;40.68
44079;BME280;29744;49.078;12.878;2022-07-25T09:25:39;96163.78;;;21.33;40.51
44079;BME280;29744;49.078;12.878;2022-07-25T09:30:42;96159.88;;;21.34;41.06
44079;BME280;29744;49.078;12.878;2022-07-25T09:35:52;96151.28;;;21.32;40.40
44079;BME280;29744;49.078;12.878;2022-07-25T09:41:00;96154.81;;;21.32;40.94
44079;BME280;29744;49.078;12.878;2022-07-25T09:46:01;96145.47;;;21.33;41.10
44079;BME280;29744;49.078;12.878;2022-07-25T09:51:02;96145.47;;;21.33;40.85
44079;BME280;29744;49.078;12.878;2022-07-25T09:56:02;96143.53;;;21.34;40.80
44079;BME280;29744;49.078;12.878;2022-07-25T10:01:05;96136.13;;;21.34;41.07
44079;BME280;29744;49.078;12.878;2022-07-25T10:11:23;96129.47;;;21.32;40.81
44079;BME280;29744;49.078;12.878;2022-07-25T10:16:25;96124.44;;;21.34;40.71
44079;BME280;29744;49.078;12.878;2022-07-25T10:21:26;96118.97;;;21.34;41.01
44079;BME280;29744;49.078;12.878;2022-07-25T10:26:28;96126.00;;;21.35;40.95
44079;BME280;29744;49.078;12.878;2022-07-25T10:36:43;96100.66;;;21.34;40.70
44079;BME280;29744;49.078;12.878;2022-07-25T10:41:52;96096.78;;;21.35;41.21
44079;BME280;29744;49.078;12.878;2022-07-25T10:47:12;96090.53;;;21.35;40.88
44079;BME280;29744;49.078;12.878;2022-07-25T10:52:16;96079.25;;;21.36;40.86
44079;BME280;29744;49.078;12.878;2022-07-25T10:57:17;96064.81;;;21.36;40.96
44079;BME280;29744;49.078;12.878;2022-07-25T11:02:17;96071.06;;;21.36;41.02
44079;BME280;29744;49.078;12.878;2022-07-25T11:07:18;96061.72;;;21.37;40.72
44079;BME280;29744;49.078;12.878;2022-07-25T11:12:19;96061.72;;;21.37;40.94
44079;BME280;29744;49.078;12.878;2022-07-25T11:17:22;96051.59;;;21.38;40.95
44079;BME280;29744;49.078;12.878;2022-07-25T11:22:24;96044.97;;;21.39;41.17
44079;BME280;29744;49.078;12.878;2022-07-25T11:27:32;96041.47;;;21.38;41.17
44079;BME280;29744;49.078;12.878;2022-07-25T11:37:43;96034.44;;;21.37;40.89
44079;BME280;29744;49.078;12.878;2022-07-25T11:42:50;96032.13;;;21.39;40.97
44079;BME280;29744;49.078;12.878;2022-07-25T11:48:12;96032.13;;;21.39;41.17
44079;BME280;29744;49.078;12.878;2022-07-25T11:53:14;96022.00;;;21.40;41.13
44079;BME280;29744;49.078;12.878;2022-07-25T11:58:16;96013.81;;;21.40;40.92
44079;BME280;29744;49.078;12.878;2022-07-25T12:03:17;96014.22;;;21.42;41.23
44079;BME280;29744;49.078;12.878;2022-07-25T12:08:20;96009.91;;;21.41;41.34
44079;BME280;29744;49.078;12.878;2022-07-25T12:13:26;96005.25;;;21.41;41.14
44079;BME280;29744;49.078;12.878;2022-07-25T12:18:27;96002.53;;;21.41;40.93
44079;BME280;29744;49.078;12.878;2022-07-25T12:23:28;96004.09;;;21.42;41.22
44079;BME280;29744;49.078;12.878;2022-07-25T12:28:28;96005.25;;;21.41;41.18
44079;BME280;29744;49.078;12.878;2022-07-25T12:33:29;96000.56;;;21.42;41.37
44079;BME280;29744;49.078;12.878;2022-07-25T12:38:29;95997.84;;;21.42;41.22
44079;BME280;29744;49.078;12.878;2022-07-25T12:43:29;96003.72;;;21.44;41.21
44079;BME280;29744;49.078;12.878;2022-07-25T12:48:30;95995.91;;;21.42;41.09
44079;BME280;29744;49.078;12.878;2022-07-25T12:53:30;95988.50;;;21.43;40.85
44079;BME280;29744;49.078;12.878;2022-07-25T12:58:30;95990.06;;;21.44;40.85
44079;BME280;29744;49.078;12.878;2022-07-25T13:03:31;95990.06;;;21.44;41.60
44079;BME280;29744;49.078;12.878;2022-07-25T13:08:32;95990.84;;;21.44;41.59
44079;BME280;29744;49.078;12.878;2022-07-25T13:13:32;95970.97;;;21.44;41.26
44079;BME280;29744;49.078;12.878;2022-07-25T13:18:32;95974.47;;;21.44;40.94
44079;BME280;29744;49.078;12.878;2022-07-25T13:23:33;95967.09;;;21.45;41.29
44079;BME280;29744;49.078;12.878;2022-07-25T13:28:33;95960.47;;;21.46;41.72
44079;BME280;29744;49.078;12.878;2022-07-25T13:33:33;95954.22;;;21.45;41.38
44079;BME280;29744;49.078;12.878;2022-07-25T13:38:34;95949.56;;;21.46;40.96
44079;BME280;29744;49.078;12.878;2022-07-25T13:43:35;95938.63;;;21.46;41.54
44079;BME280;29744;49.078;12.878;2022-07-25T13:48:35;95935.91;;;21.46;41.37
44079;BME280;29744;49.078;12.878;2022-07-25T13:53:36;95929.28;;;21.47;41.24
44079;BME280;29744;49.078;12.878;2022-07-25T13:58:36;95921.09;;;21.47;41.49
44079;BME280;29744;49.078;12.878;2022-07-25T14:03:37;95910.19;;;21.47;41.72
44079;BME280;29744;49.078;12.878;2022-07-25T14:08:38;95909.81;;;21.48;41.18
44079;BME280;29744;49.078;12.878;2022-07-25T14:13:39;95914.50;;;21.48;41.40
44079;BME280;29744;49.078;12.878;2022-07-25T14:18:39;95910.59;;;21.49;41.12
44079;BME280;29744;49.078;12.878;2022-07-25T14:23:40;95896.97;;;21.49;41.48
44079;BME280;29744;49.078;12.878;2022-07-25T14:28:40;95895.00;;;21.49;41.20
44079;BME280;29744;49.078;12.878;2022-07-25T14:33:40;95891.13;;;21.50;40.99
44079;BME280;29744;49.078;12.878;2022-07-25T14:38:41;95882.94;;;21.50;41.41
44079;BME280;29744;49.078;12.878;2022-07-25T14:43:41;95883.72;;;21.51;41.46
44079;BME280;29744;49.078;12.878;2022-07-25T14:48:42;95879.03;;;21.52;40.99
44079;BME280;29744;49.078;12.878;2022-07-25T14:53:42;95868.91;;;21.52;41.10
44079;BME280;29744;49.078;12.878;2022-07-25T14:58:43;95857.22;;;21.52;41.17
44079;BME280;29744;49.078;12.878;2022-07-25T15:03:43;95852.53;;;21.52;41.16
44079;BME280;29744;49.078;12.878;2022-07-25T15:08:44;95850.59;;;21.53;41.73
44079;BME280;29744;49.078;12.878;2022-07-25T15:13:45;95836.97;;;21.53;41.19
44079;BME280;29744;49.078;12.878;2022-07-25T15:18:45;95839.31;;;21.54;41.48
44079;BME280;29744;49.078;12.878;2022-07-25T15:23:45;95818.63;;;21.53;41.38
44079;BME280;29744;49.078;12.878;2022-07-25T15:28:46;95821.75;;;21.55;41.16
44079;BME280;29744;49.078;12.878;2022-07-25T15:33:46;95812.81;;;21.55;41.23
44079;BME280;29744;49.078;12.878;2022-07-25T15:38:47;95806.56;;;21.54;41.31
44079;BME280;29744;49.078;12.878;2022-07-25T15:43:48;95798.38;;;21.54;41.39
44079;BME280;29744;49.078;12.878;2022-07-25T15:48:48;95798.00;;;21.56;41.08
44079;BME280;29744;49.078;12.878;2022-07-25T15:53:49;95780.47;;;21.57;41.76
44079;BME280;29744;49.078;12.878;2022-07-25T15:58:49;95772.66;;;21.55;41.63
44079;BME280;29744;49.078;12.878;2022-07-25T16:03:50;95768.75;;;21.56;41.39
44079;BME280;29744;49.078;12.878;2022-07-25T16:08:50;95767.97;;;21.56;41.43
44079;BME280;29744;49.078;12.878;2022-07-25T16:13:51;95762.13;;;21.57;41.59
44079;BME280;29744;49.078;12.878;2022-07-25T16:18:51;95762.13;;;21.57;41.50
44079;BME280;29744;49.078;12.878;2022-07-25T16:23:52;95761.34;;;21.57;41.96
44079;BME280;29744;49.078;12.878;2022-07-25T16:28:52;95751.22;;;21.57;41.39
44079;BME280;29744;49.078;12.878;2022-07-25T16:33:53;95748.50;;;21.57;41.69
44079;BME280;29744;49.078;12.878;2022-07-25T16:38:53;95737.97;;;21.59;41.25
44079;BME280;29744;49.078;12.878;2022-07-25T16:43:53;95740.72;;;21.59;41.63
44079;BME280;29744;49.078;12.878;2022-07-25T16:48:54;95731.00;;;21.62;41.70
44079;BME280;29744;49.078;12.878;2022-07-25T16:53:54;95726.72;;;21.61;41.75
44079;BME280;29744;49.078;12.878;2022-07-25T16:58:55;95727.09;;;21.63;41.83
44079;BME280;29744;49.078;12.878;2022-07-25T17:03:55;95719.69;;;21.63;41.60
44079;BME280;29744;49.078;12.878;2022-07-25T17:08:56;95718.16;;;21.66;41.97
44079;BME280;29744;49.078;12.878;2022-07-25T17:13:57;95722.03;;;21.65;41.69
44079;BME280;29744;49.078;12.878;2022-07-25T17:19:00;95727.88;;;21.67;41.93
44079;BME280;29744;49.078;12.878;2022-07-25T17:24:01;95732.97;;;21.65;41.94
44079;BME280;29744;49.078;12.878;2022-07-25T17:29:01;95730.63;;;21.67;41.90
44079;BME280;29744;49.078;12.878;2022-07-25T17:34:01;95725.16;;;21.67;42.00
44079;BME280;29744;49.078;12.878;2022-07-25T17:39:02;95731.41;;;21.67;42.06
44079;BME280;29744;49.078;12.878;2022-07-25T17:44:02;95729.84;;;21.66;41.93
44079;BME280;29744;49.078;12.878;2022-07-25T17:49:04;95736.06;;;21.67;42.06
44079;BME280;29744;49.078;12.878;2022-07-25T17:54:04;95744.25;;;21.67;41.79
44079;BME280;29744;49.078;12.878;2022-07-25T17:59:06;95736.84;;;21.67;42.06
44079;BME280;29744;49.078;12.878;2022-07-25T18:04:07;95749.72;;;21.67;41.96
44079;BME280;29744;49.078;12.878;2022-07-25T18:09:07;95747.78;;;21.67;42.11
44079;BME280;29744;49.078;12.878;2022-07-25T18:14:08;95754.41;;;21.66;41.84
44079;BME280;29744;49.078;12.878;2022-07-25T18:19:12;95776.63;;;21.68;41.95
44079;BME280;29744;49.078;12.878;2022-07-25T18:24:12;95762.97;;;21.68;41.58
44079;BME280;29744;49.078;12.878;2022-07-25T18:29:13;95757.13;;;21.66;41.74
44079;BME280;29744;49.078;12.878;2022-07-25T18:34:13;95772.34;;;21.67;41.83
44079;BME280;29744;49.078;12.878;2022-07-25T18:39:13;95778.97;;;21.66;41.96
44079;BME280;29744;49.078;12.878;2022-07-25T18:44:14;95785.19;;;21.67;41.79
44079;BME280;29744;49.078;12.878;2022-07-25T18:49:14;95788.69;;;21.67;42.03
44079;BME280;29744;49.078;12.878;2022-07-25T18:54:14;95832.38;;;21.67;41.86
44079;BME280;29744;49.078;12.878;2022-07-25T18:59:15;95842.50;;;21.67;41.72
44079;BME280;29744;49.078;12.878;2022-07-25T19:04:16;95808.59;;;21.68;42.23
44079;BME280;29744;49.078;12.878;2022-07-25T19:09:17;95835.09;;;21.67;41.95
44079;BME280;29744;49.078;12.878;2022-07-25T19:14:18;95846.00;;;21.67;41.92
44079;BME280;29744;49.078;12.878;2022-07-25T19:19:18;95844.44;;;21.66;42.03
44079;BME280;29744;49.078;12.878;2022-07-25T19:24:19;95840.56;;;21.67;42.12
44079;BME280;29744;49.078;12.878;2022-07-25T19:29:19;95834.31;;;21.67;42.12
44079;BME280;29744;49.078;12.878;2022-07-25T19:34:20;95835.09;;;21.67;42.25
44079;BME280;29744;49.078;12.878;2022-07-25T19:39:21;95836.66;;;21.68;41.95
44079;BME280;29744;49.078;12.878;2022-07-25T19:44:23;95831.19;;;21.68;42.07
44079;BME280;29744;49.078;12.878;2022-07-25T19:49:23;95842.91;;;21.69;42.11
44079;BME280;29744;49.078;12.878;2022-07-25T19:54:24;95836.66;;;21.68;42.38
44079;BME280;29744;49.078;12.878;2022-07-25T19:59:25;95842.91;;;21.69;42.32
44079;BME280;29744;49.078;12.878;2022-07-25T20:04:25;95854.59;;;21.69;41.84
44079;BME280;29744;49.078;12.878;2022-07-25T20:09:25;95840.16;;;21.69;42.14
44079;BME280;29744;49.078;12.878;2022-07-25T20:14:26;95843.69;;;21.69;42.27
44079;BME280;29744;49.078;12.878;2022-07-25T20:19:26;95846.41;;;21.69;42.10
44079;BME280;29744;49.078;12.878;2022-07-25T20:24:26;95854.59;;;21.69;41.90
44079;BME280;29744;49.078;12.878;2022-07-25T20:29:27;95857.72;;;21.71;42.26
44079;BME280;29744;49.078;12.878;2022-07-25T20:34:27;95865.13;;;21.71;42.32
44079;BME280;29744;49.078;12.878;2022-07-25T20:39:28;95860.44;;;21.71;42.51
44079;BME280;29744;49.078;12.878;2022-07-25T20:44:28;95858.88;;;21.70;42.50
44079;BME280;29744;49.078;12.878;2022-07-25T20:49:28;95857.72;;;21.71;42.60
44079;BME280;29744;49.078;12.878;2022-07-25T20:54:29;95858.50;;;21.72;42.28
44079;BME280;29744;49.078;12.878;2022-07-25T20:59:29;95850.69;;;21.70;42.45
44079;BME280;29744;49.078;12.878;2022-07-25T21:04:29;95848.75;;;21.71;42.22
44079;BME280;29744;49.078;12.878;2022-07-25T21:09:30;95847.19;;;21.70;42.26
44079;BME280;29744;49.078;12.878;2022-07-25T21:14:30;95856.94;;;21.71;42.46
44079;BME280;29744;49.078;12.878;2022-07-25T21:19:30;95860.44;;;21.71;42.27
44079;BME280;29744;49.078;12.878;2022-07-25T21:24:31;95865.13;;;21.71;42.60
44079;BME280;29744;49.078;12.878;2022-07-25T21:29:31;95870.59;;;21.71;42.15
44079;BME280;29744;49.078;12.878;2022-07-25T21:34:31;95897.88;;;21.71;42.25
44079;BME280;29744;49.078;12.878;2022-07-25T21:39:32;95908.00;;;21.70;42.45
44079;BME280;29744;49.078;12.878;2022-07-25T21:44:32;95943.47;;;21.70;42.33
44079;BME280;29744;49.078;12.878;2022-07-25T21:49:33;95983.63;;;21.70;42.13
44079;BME280;29744;49.078;12.878;2022-07-25T21:54:52;95977.41;;;21.69;42.26
44079;BME280;29744;49.078;12.878;2022-07-25T21:59:52;96000.38;;;21.68;42.66
44079;BME280;29744;49.078;12.878;2022-07-25T22:04:53;96001.16;;;21.69;42.23
44079;BME280;29744;49.078;12.878;2022-07-25T22:09:53;95997.66;;;21.68;42.05
44079;BME280;29744;49.078;12.878;2022-07-25T22:14:53;95992.19;;;21.68;42.23
44079;BME280;29744;49.078;12.878;2022-07-25T22:19:54;95981.69;;;21.70;42.20
44079;BME280;29744;49.078;12.878;2022-07-25T22:24:54;95982.06;;;21.69;42.21
44079;BME280;29744;49.078;12.878;2022-07-25T22:29:54;95973.88;;;21.69;42.14
44079;BME280;29744;49.078;12.878;2022-07-25T22:34:54;95974.66;;;21.69;41.82
44079;BME280;29744;49.078;12.878;2022-07-25T22:39:55;95993.75;;;21.69;42.44
44079;BME280;29744;49.078;12.878;2022-07-25T22:44:55;96006.25;;;21.70;42.23
44079;BME280;29744;49.078;12.878;2022-07-25T22:49:55;96004.69;;;21.69;42.21
44079;BME280;29744;49.078;12.878;2022-07-25T22:54:55;96012.88;;;21.69;41.78
44079;BME280;29744;49.078;12.878;2022-07-25T22:59:56;96032.75;;;21.70;42.10
44079;BME280;29744;49.078;12.878;2022-07-25T23:04:56;96118.91;;;21.71;42.14
44079;BME280;29744;49.078;12.878;2022-07-25T23:09:56;96125.53;;;21.70;42.14
44079;BME280;29744;49.078;12.878;2022-07-25T23:14:57;96088.91;;;21.71;42.16
44079;BME280;29744;49.078;12.878;2022-07-25T23:19:58;96080.72;;;21.71;42.14
44079;BME280;29744;49.078;12.878;2022-07-25T23:24:58;96082.66;;;21.70;42.32
44079;BME280;29744;49.078;12.878;2022-07-25T23:29:58;96088.50;;;21.69;42.41
44079;BME280;29744;49.078;12.878;2022-07-25T23:34:59;96094.34;;;21.71;42.18
44079;BME280;29744;49.078;12.878;2022-07-25T23:39:59;96109.94;;;21.70;41.76
44079;BME280;29744;49.078;12.878;2022-07-25T23:45:00;96112.28;;;21.68;42.09
44079;BME280;29744;49.078;12.878;2022-07-25T23:50:00;96126.72;;;21.69;41.88
44079;BME280;29744;49.078;12.878;2022-07-25T23:55:00;96128.66;;;21.68;41.78
